sensor_id;sensor_type;location;lat;lon;timestamp;P1;durP1;ratioP1;P2;durP2;ratioP2
75450;SDS011;64029;48.244;9.188;2022-10-17T00:00:46;6.80;;;4.17;;
75450;SDS011;64029;48.244;9.188;2022-10-17T00:03:13;5.10;;;3.97;;
75450;SDS011;64029;48.244;9.188;2022-10-17T00:05:40;4.43;;;4.00;;
75450;SDS011;64029;48.244;9.188;2022-10-17T00:08:11;5.03;;;3.40;;
75450;SDS011;64029;48.244;9.188;2022-10-17T00:10:39;11.70;;;5.17;;
75450;SDS011;64029;48.244;9.188;2022-10-17T00:13:06;6.50;;;3.50;;
75450;SDS011;64029;48.244;9.188;2022-10-17T00:15:34;3.13;;;2.83;;
75450;SDS011;64029;48.244;9.188;2022-10-17T00:18:01;2.83;;;2.37;;
75450;SDS011;64029;48.244;9.188;2022-10-17T00:20:28;5.13;;;2.50;;
75450;SDS011;64029;48.244;9.188;2022-10-17T00:22:57;4.27;;;2.90;;
75450;SDS011;64029;48.244;9.188;2022-10-17T00:25:26;3.70;;;2.47;;
75450;SDS011;64029;48.244;9.188;2022-10-17T00:27:52;4.33;;;2.43;;
75450;SDS011;64029;48.244;9.188;2022-10-17T00:30:19;10.33;;;3.13;;
75450;SDS011;64029;48.244;9.188;2022-10-17T00:32:46;6.23;;;3.50;;
75450;SDS011;64029;48.244;9.188;2022-10-17T00:35:13;3.90;;;3.03;;
75450;SDS011;64029;48.244;9.188;2022-10-17T00:37:40;5.93;;;1.90;;
75450;SDS011;64029;48.244;9.188;2022-10-17T00:40:08;4.50;;;2.40;;
75450;SDS011;64029;48.244;9.188;2022-10-17T00:42:37;2.83;;;2.00;;
75450;SDS011;64029;48.244;9.188;2022-10-17T00:45:06;2.20;;;2.00;;
75450;SDS011;64029;48.244;9.188;2022-10-17T00:47:39;3.47;;;1.70;;
75450;SDS011;64029;48.244;9.188;2022-10-17T00:50:07;2.17;;;1.70;;
75450;SDS011;64029;48.244;9.188;2022-10-17T00:52:35;3.00;;;1.50;;
75450;SDS011;64029;48.244;9.188;2022-10-17T00:55:05;2.33;;;1.17;;
75450;SDS011;64029;48.244;9.188;2022-10-17T00:57:38;3.53;;;1.60;;
75450;SDS011;64029;48.244;9.188;2022-10-17T01:00:07;4.33;;;1.60;;
75450;SDS011;64029;48.244;9.188;2022-10-17T01:02:36;2.83;;;1.57;;
75450;SDS011;64029;48.244;9.188;2022-10-17T01:05:03;2.90;;;1.93;;
75450;SDS011;64029;48.244;9.188;2022-10-17T01:07:31;2.63;;;1.70;;
75450;SDS011;64029;48.244;9.188;2022-10-17T01:09:58;5.53;;;1.53;;
75450;SDS011;64029;48.244;9.188;2022-10-17T01:12:27;7.10;;;2.33;;
75450;SDS011;64029;48.244;9.188;2022-10-17T01:15:04;7.10;;;2.13;;
75450;SDS011;64029;48.244;9.188;2022-10-17T01:17:39;3.00;;;1.97;;
75450;SDS011;64029;48.244;9.188;2022-10-17T01:20:44;4.70;;;1.90;;
75450;SDS011;64029;48.244;9.188;2022-10-17T01:26:52;2.53;;;1.80;;
75450;SDS011;64029;48.244;9.188;2022-10-17T01:29:41;3.47;;;1.97;;
75450;SDS011;64029;48.244;9.188;2022-10-17T01:32:21;5.90;;;1.70;;
75450;SDS011;64029;48.244;9.188;2022-10-17T01:34:53;4.90;;;2.40;;
75450;SDS011;64029;48.244;9.188;2022-10-17T01:37:25;3.20;;;1.80;;
75450;SDS011;64029;48.244;9.188;2022-10-17T01:39:57;6.87;;;2.40;;
75450;SDS011;64029;48.244;9.188;2022-10-17T01:42:32;4.50;;;1.97;;
75450;SDS011;64029;48.244;9.188;2022-10-17T01:45:03;5.50;;;2.20;;
75450;SDS011;64029;48.244;9.188;2022-10-17T01:47:38;5.00;;;1.90;;
75450;SDS011;64029;48.244;9.188;2022-10-17T01:50:08;2.93;;;1.97;;
75450;SDS011;64029;48.244;9.188;2022-10-17T01:52:40;10.30;;;2.13;;
75450;SDS011;64029;48.244;9.188;2022-10-17T01:55:11;6.43;;;1.40;;
75450;SDS011;64029;48.244;9.188;2022-10-17T01:57:42;3.47;;;1.87;;
75450;SDS011;64029;48.244;9.188;2022-10-17T02:00:16;2.77;;;1.93;;
75450;SDS011;64029;48.244;9.188;2022-10-17T02:02:47;3.93;;;1.40;;
75450;SDS011;64029;48.244;9.188;2022-10-17T02:05:19;3.43;;;1.70;;
75450;SDS011;64029;48.244;9.188;2022-10-17T02:07:50;3.73;;;1.30;;
75450;SDS011;64029;48.244;9.188;2022-10-17T02:10:18;2.97;;;1.40;;
75450;SDS011;64029;48.244;9.188;2022-10-17T02:12:50;1.80;;;1.60;;
75450;SDS011;64029;48.244;9.188;2022-10-17T02:15:33;3.20;;;1.80;;
75450;SDS011;64029;48.244;9.188;2022-10-17T02:18:17;2.10;;;1.77;;
75450;SDS011;64029;48.244;9.188;2022-10-17T02:20:57;6.67;;;2.57;;
75450;SDS011;64029;48.244;9.188;2022-10-17T02:23:29;2.80;;;1.70;;
75450;SDS011;64029;48.244;9.188;2022-10-17T02:26:05;4.73;;;1.63;;
75450;SDS011;64029;48.244;9.188;2022-10-17T02:28:38;4.00;;;1.67;;
75450;SDS011;64029;48.244;9.188;2022-10-17T02:31:12;5.63;;;2.17;;
75450;SDS011;64029;48.244;9.188;2022-10-17T02:33:42;4.40;;;2.40;;
75450;SDS011;64029;48.244;9.188;2022-10-17T02:36:15;6.50;;;2.10;;
75450;SDS011;64029;48.244;9.188;2022-10-17T02:38:47;3.83;;;1.97;;
75450;SDS011;64029;48.244;9.188;2022-10-17T02:41:15;9.50;;;1.90;;
75450;SDS011;64029;48.244;9.188;2022-10-17T02:43:44;4.30;;;1.57;;
75450;SDS011;64029;48.244;9.188;2022-10-17T02:46:14;3.20;;;1.47;;
75450;SDS011;64029;48.244;9.188;2022-10-17T02:48:47;2.00;;;1.60;;
75450;SDS011;64029;48.244;9.188;2022-10-17T02:51:18;2.00;;;1.80;;
75450;SDS011;64029;48.244;9.188;2022-10-17T02:53:51;5.17;;;2.00;;
75450;SDS011;64029;48.244;9.188;2022-10-17T02:56:22;1.70;;;1.60;;
75450;SDS011;64029;48.244;9.188;2022-10-17T02:58:53;5.70;;;2.03;;
75450;SDS011;64029;48.244;9.188;2022-10-17T03:01:23;2.27;;;1.70;;
75450;SDS011;64029;48.244;9.188;2022-10-17T03:03:52;1.90;;;1.80;;
75450;SDS011;64029;48.244;9.188;2022-10-17T03:06:30;1.90;;;1.70;;
75450;SDS011;64029;48.244;9.188;2022-10-17T03:08:57;2.47;;;1.80;;
75450;SDS011;64029;48.244;9.188;2022-10-17T03:11:24;5.37;;;1.87;;
75450;SDS011;64029;48.244;9.188;2022-10-17T03:13:51;5.00;;;2.17;;
75450;SDS011;64029;48.244;9.188;2022-10-17T03:16:18;2.20;;;1.50;;
75450;SDS011;64029;48.244;9.188;2022-10-17T03:18:44;2.40;;;1.60;;
75450;SDS011;64029;48.244;9.188;2022-10-17T03:21:13;2.00;;;1.70;;
75450;SDS011;64029;48.244;9.188;2022-10-17T03:23:40;3.27;;;2.97;;
75450;SDS011;64029;48.244;9.188;2022-10-17T03:26:07;5.20;;;1.80;;
75450;SDS011;64029;48.244;9.188;2022-10-17T03:28:34;3.87;;;2.07;;
75450;SDS011;64029;48.244;9.188;2022-10-17T03:31:05;3.93;;;1.80;;
75450;SDS011;64029;48.244;9.188;2022-10-17T03:33:32;2.60;;;1.90;;
75450;SDS011;64029;48.244;9.188;2022-10-17T03:35:59;3.50;;;2.13;;
75450;SDS011;64029;48.244;9.188;2022-10-17T03:38:32;2.57;;;1.93;;
75450;SDS011;64029;48.244;9.188;2022-10-17T03:40:59;2.20;;;1.90;;
75450;SDS011;64029;48.244;9.188;2022-10-17T03:43:26;2.80;;;1.70;;
75450;SDS011;64029;48.244;9.188;2022-10-17T03:45:53;4.20;;;2.20;;
75450;SDS011;64029;48.244;9.188;2022-10-17T03:48:21;3.43;;;2.00;;
75450;SDS011;64029;48.244;9.188;2022-10-17T03:50:48;3.03;;;1.83;;
75450;SDS011;64029;48.244;9.188;2022-10-17T03:53:15;3.37;;;1.80;;
75450;SDS011;64029;48.244;9.188;2022-10-17T03:55:44;5.03;;;2.17;;
75450;SDS011;64029;48.244;9.188;2022-10-17T03:58:11;2.30;;;1.90;;
75450;SDS011;64029;48.244;9.188;2022-10-17T04:00:38;2.80;;;1.90;;
75450;SDS011;64029;48.244;9.188;2022-10-17T04:03:04;2.63;;;2.03;;
75450;SDS011;64029;48.244;9.188;2022-10-17T04:05:31;2.50;;;2.17;;
75450;SDS011;64029;48.244;9.188;2022-10-17T04:07:58;4.63;;;2.60;;
75450;SDS011;64029;48.244;9.188;2022-10-17T04:10:25;4.33;;;2.63;;
75450;SDS011;64029;48.244;9.188;2022-10-17T04:12:53;7.30;;;3.80;;
75450;SDS011;64029;48.244;9.188;2022-10-17T04:15:20;13.67;;;8.50;;
75450;SDS011;64029;48.244;9.188;2022-10-17T04:17:47;45.83;;;24.27;;
75450;SDS011;64029;48.244;9.188;2022-10-17T04:20:14;66.30;;;36.80;;
75450;SDS011;64029;48.244;9.188;2022-10-17T04:22:41;61.37;;;34.43;;
75450;SDS011;64029;48.244;9.188;2022-10-17T04:25:08;43.93;;;27.70;;
75450;SDS011;64029;48.244;9.188;2022-10-17T04:27:35;36.73;;;18.23;;
75450;SDS011;64029;48.244;9.188;2022-10-17T04:30:04;23.30;;;13.60;;
75450;SDS011;64029;48.244;9.188;2022-10-17T04:32:34;13.50;;;6.50;;
75450;SDS011;64029;48.244;9.188;2022-10-17T04:35:02;12.60;;;7.40;;
75450;SDS011;64029;48.244;9.188;2022-10-17T04:37:29;11.43;;;6.93;;
75450;SDS011;64029;48.244;9.188;2022-10-17T04:39:56;14.53;;;5.83;;
75450;SDS011;64029;48.244;9.188;2022-10-17T04:42:23;10.40;;;5.23;;
75450;SDS011;64029;48.244;9.188;2022-10-17T04:44:49;10.00;;;5.67;;
75450;SDS011;64029;48.244;9.188;2022-10-17T04:47:18;9.30;;;5.30;;
75450;SDS011;64029;48.244;9.188;2022-10-17T04:49:45;6.90;;;5.20;;
75450;SDS011;64029;48.244;9.188;2022-10-17T04:52:12;6.93;;;4.60;;
75450;SDS011;64029;48.244;9.188;2022-10-17T04:54:38;6.53;;;5.13;;
75450;SDS011;64029;48.244;9.188;2022-10-17T04:57:05;5.80;;;4.53;;
75450;SDS011;64029;48.244;9.188;2022-10-17T04:59:32;8.13;;;4.07;;
75450;SDS011;64029;48.244;9.188;2022-10-17T05:01:59;5.10;;;3.93;;
75450;SDS011;64029;48.244;9.188;2022-10-17T05:04:28;7.03;;;4.60;;
75450;SDS011;64029;48.244;9.188;2022-10-17T05:06:54;9.53;;;4.43;;
75450;SDS011;64029;48.244;9.188;2022-10-17T05:09:21;5.80;;;3.43;;
75450;SDS011;64029;48.244;9.188;2022-10-17T05:11:49;8.57;;;3.77;;
75450;SDS011;64029;48.244;9.188;2022-10-17T05:14:16;8.10;;;4.20;;
75450;SDS011;64029;48.244;9.188;2022-10-17T05:16:43;9.10;;;5.30;;
75450;SDS011;64029;48.244;9.188;2022-10-17T05:19:10;8.80;;;4.90;;
75450;SDS011;64029;48.244;9.188;2022-10-17T05:21:39;9.10;;;5.10;;
75450;SDS011;64029;48.244;9.188;2022-10-17T05:24:06;10.70;;;5.53;;
75450;SDS011;64029;48.244;9.188;2022-10-17T05:26:34;13.20;;;5.30;;
75450;SDS011;64029;48.244;9.188;2022-10-17T05:29:01;8.63;;;4.80;;
75450;SDS011;64029;48.244;9.188;2022-10-17T05:31:29;7.67;;;4.40;;
75450;SDS011;64029;48.244;9.188;2022-10-17T05:33:58;8.70;;;4.40;;
75450;SDS011;64029;48.244;9.188;2022-10-17T05:36:26;8.70;;;4.03;;
75450;SDS011;64029;48.244;9.188;2022-10-17T05:38:55;5.23;;;4.23;;
75450;SDS011;64029;48.244;9.188;2022-10-17T05:41:21;5.73;;;3.70;;
75450;SDS011;64029;48.244;9.188;2022-10-17T05:43:48;10.60;;;5.00;;
75450;SDS011;64029;48.244;9.188;2022-10-17T05:46:15;9.43;;;4.47;;
75450;SDS011;64029;48.244;9.188;2022-10-17T05:48:42;6.60;;;4.47;;
75450;SDS011;64029;48.244;9.188;2022-10-17T05:51:10;6.43;;;4.70;;
75450;SDS011;64029;48.244;9.188;2022-10-17T05:53:37;8.87;;;4.20;;
75450;SDS011;64029;48.244;9.188;2022-10-17T05:56:08;3.97;;;3.57;;
75450;SDS011;64029;48.244;9.188;2022-10-17T05:58:38;6.97;;;3.33;;
75450;SDS011;64029;48.244;9.188;2022-10-17T06:01:08;5.23;;;4.70;;
75450;SDS011;64029;48.244;9.188;2022-10-17T06:03:37;7.60;;;5.13;;
75450;SDS011;64029;48.244;9.188;2022-10-17T06:06:05;8.43;;;4.40;;
75450;SDS011;64029;48.244;9.188;2022-10-17T06:08:32;5.57;;;4.20;;
75450;SDS011;64029;48.244;9.188;2022-10-17T06:10:59;4.70;;;3.77;;
75450;SDS011;64029;48.244;9.188;2022-10-17T06:13:28;4.90;;;4.13;;
75450;SDS011;64029;48.244;9.188;2022-10-17T06:15:56;7.73;;;4.30;;
75450;SDS011;64029;48.244;9.188;2022-10-17T06:18:23;5.10;;;3.80;;
75450;SDS011;64029;48.244;9.188;2022-10-17T06:20:50;4.10;;;3.70;;
75450;SDS011;64029;48.244;9.188;2022-10-17T06:23:17;6.93;;;3.77;;
75450;SDS011;64029;48.244;9.188;2022-10-17T06:25:44;6.30;;;3.87;;
75450;SDS011;64029;48.244;9.188;2022-10-17T06:28:11;7.30;;;4.17;;
75450;SDS011;64029;48.244;9.188;2022-10-17T06:30:39;4.80;;;3.80;;
75450;SDS011;64029;48.244;9.188;2022-10-17T06:33:06;4.53;;;4.13;;
75450;SDS011;64029;48.244;9.188;2022-10-17T06:35:33;4.90;;;4.40;;
75450;SDS011;64029;48.244;9.188;2022-10-17T06:38:01;5.83;;;3.80;;
75450;SDS011;64029;48.244;9.188;2022-10-17T06:40:29;5.40;;;4.80;;
75450;SDS011;64029;48.244;9.188;2022-10-17T06:42:56;6.50;;;4.90;;
75450;SDS011;64029;48.244;9.188;2022-10-17T06:45:22;7.20;;;4.83;;
75450;SDS011;64029;48.244;9.188;2022-10-17T06:47:51;14.50;;;6.43;;
75450;SDS011;64029;48.244;9.188;2022-10-17T06:50:19;9.57;;;6.67;;
75450;SDS011;64029;48.244;9.188;2022-10-17T06:52:49;9.57;;;7.80;;
75450;SDS011;64029;48.244;9.188;2022-10-17T06:55:16;9.80;;;7.40;;
75450;SDS011;64029;48.244;9.188;2022-10-17T06:57:43;10.17;;;7.73;;
75450;SDS011;64029;48.244;9.188;2022-10-17T07:00:11;7.93;;;6.80;;
75450;SDS011;64029;48.244;9.188;2022-10-17T07:02:38;7.73;;;6.77;;
75450;SDS011;64029;48.244;9.188;2022-10-17T07:05:08;9.33;;;5.67;;
75450;SDS011;64029;48.244;9.188;2022-10-17T07:07:36;6.03;;;5.43;;
75450;SDS011;64029;48.244;9.188;2022-10-17T07:10:03;7.40;;;6.10;;
75450;SDS011;64029;48.244;9.188;2022-10-17T07:12:32;7.27;;;6.57;;
75450;SDS011;64029;48.244;9.188;2022-10-17T07:15:00;7.17;;;5.87;;
75450;SDS011;64029;48.244;9.188;2022-10-17T07:17:28;9.03;;;5.80;;
75450;SDS011;64029;48.244;9.188;2022-10-17T07:19:55;8.80;;;5.60;;
75450;SDS011;64029;48.244;9.188;2022-10-17T07:22:23;7.00;;;5.63;;
75450;SDS011;64029;48.244;9.188;2022-10-17T07:24:50;6.67;;;5.00;;
75450;SDS011;64029;48.244;9.188;2022-10-17T07:27:17;6.43;;;4.60;;
75450;SDS011;64029;48.244;9.188;2022-10-17T07:29:44;5.67;;;5.07;;
75450;SDS011;64029;48.244;9.188;2022-10-17T07:32:11;7.03;;;4.13;;
75450;SDS011;64029;48.244;9.188;2022-10-17T07:34:38;5.30;;;4.60;;
75450;SDS011;64029;48.244;9.188;2022-10-17T07:37:05;7.33;;;4.40;;
75450;SDS011;64029;48.244;9.188;2022-10-17T07:39:35;6.77;;;5.70;;
75450;SDS011;64029;48.244;9.188;2022-10-17T07:42:04;10.57;;;6.50;;
75450;SDS011;64029;48.244;9.188;2022-10-17T07:44:32;11.07;;;7.00;;
75450;SDS011;64029;48.244;9.188;2022-10-17T07:47:00;11.07;;;8.53;;
75450;SDS011;64029;48.244;9.188;2022-10-17T07:49:27;10.37;;;7.30;;
75450;SDS011;64029;48.244;9.188;2022-10-17T07:51:55;8.30;;;7.30;;
75450;SDS011;64029;48.244;9.188;2022-10-17T07:54:22;9.97;;;6.57;;
75450;SDS011;64029;48.244;9.188;2022-10-17T07:56:50;10.07;;;5.90;;
75450;SDS011;64029;48.244;9.188;2022-10-17T07:59:17;5.33;;;4.43;;
75450;SDS011;64029;48.244;9.188;2022-10-17T08:01:44;4.90;;;4.40;;
75450;SDS011;64029;48.244;9.188;2022-10-17T08:04:11;5.63;;;4.73;;
75450;SDS011;64029;48.244;9.188;2022-10-17T08:06:40;10.40;;;5.13;;
75450;SDS011;64029;48.244;9.188;2022-10-17T08:09:07;5.47;;;4.97;;
75450;SDS011;64029;48.244;9.188;2022-10-17T08:11:34;8.40;;;5.70;;
75450;SDS011;64029;48.244;9.188;2022-10-17T08:14:02;9.30;;;5.57;;
75450;SDS011;64029;48.244;9.188;2022-10-17T08:16:29;8.40;;;5.20;;
75450;SDS011;64029;48.244;9.188;2022-10-17T08:18:56;5.33;;;4.70;;
75450;SDS011;64029;48.244;9.188;2022-10-17T08:21:23;7.53;;;5.07;;
75450;SDS011;64029;48.244;9.188;2022-10-17T08:23:50;8.23;;;4.47;;
75450;SDS011;64029;48.244;9.188;2022-10-17T08:26:17;10.37;;;5.70;;
75450;SDS011;64029;48.244;9.188;2022-10-17T08:28:44;6.10;;;5.50;;
75450;SDS011;64029;48.244;9.188;2022-10-17T08:31:13;11.90;;;6.40;;
75450;SDS011;64029;48.244;9.188;2022-10-17T08:33:43;6.50;;;4.80;;
75450;SDS011;64029;48.244;9.188;2022-10-17T08:36:11;6.57;;;5.23;;
75450;SDS011;64029;48.244;9.188;2022-10-17T08:38:39;27.17;;;14.00;;
75450;SDS011;64029;48.244;9.188;2022-10-17T08:41:11;13.77;;;6.20;;
75450;SDS011;64029;48.244;9.188;2022-10-17T08:43:43;22.87;;;11.70;;
75450;SDS011;64029;48.244;9.188;2022-10-17T08:46:21;20.70;;;12.20;;
75450;SDS011;64029;48.244;9.188;2022-10-17T08:48:54;30.73;;;17.70;;
75450;SDS011;64029;48.244;9.188;2022-10-17T08:51:25;36.93;;;19.10;;
75450;SDS011;64029;48.244;9.188;2022-10-17T08:53:57;28.90;;;16.87;;
75450;SDS011;64029;48.244;9.188;2022-10-17T08:56:32;31.47;;;18.30;;
75450;SDS011;64029;48.244;9.188;2022-10-17T08:59:04;26.87;;;14.80;;
75450;SDS011;64029;48.244;9.188;2022-10-17T09:01:32;23.70;;;13.97;;
75450;SDS011;64029;48.244;9.188;2022-10-17T09:07:04;11.40;;;8.80;;
75450;SDS011;64029;48.244;9.188;2022-10-17T09:09:39;9.80;;;7.83;;
75450;SDS011;64029;48.244;9.188;2022-10-17T09:12:14;13.53;;;8.30;;
75450;SDS011;64029;48.244;9.188;2022-10-17T09:14:54;10.70;;;8.70;;
75450;SDS011;64029;48.244;9.188;2022-10-17T09:17:41;27.50;;;16.40;;
75450;SDS011;64029;48.244;9.188;2022-10-17T09:20:16;26.17;;;16.13;;
75450;SDS011;64029;48.244;9.188;2022-10-17T09:22:48;16.83;;;12.30;;
75450;SDS011;64029;48.244;9.188;2022-10-17T09:25:21;17.03;;;10.13;;
75450;SDS011;64029;48.244;9.188;2022-10-17T09:27:48;17.40;;;10.80;;
75450;SDS011;64029;48.244;9.188;2022-10-17T09:30:29;14.83;;;8.00;;
75450;SDS011;64029;48.244;9.188;2022-10-17T09:33:01;28.93;;;16.23;;
75450;SDS011;64029;48.244;9.188;2022-10-17T09:35:37;26.73;;;16.50;;
75450;SDS011;64029;48.244;9.188;2022-10-17T09:38:06;18.23;;;12.33;;
75450;SDS011;64029;48.244;9.188;2022-10-17T09:40:43;23.20;;;15.67;;
75450;SDS011;64029;48.244;9.188;2022-10-17T09:43:12;16.77;;;9.93;;
75450;SDS011;64029;48.244;9.188;2022-10-17T09:45:42;14.30;;;9.80;;
75450;SDS011;64029;48.244;9.188;2022-10-17T09:48:22;6.27;;;5.40;;
75450;SDS011;64029;48.244;9.188;2022-10-17T09:50:55;12.90;;;7.80;;
75450;SDS011;64029;48.244;9.188;2022-10-17T09:53:23;12.23;;;7.60;;
75450;SDS011;64029;48.244;9.188;2022-10-17T09:55:55;8.47;;;6.33;;
75450;SDS011;64029;48.244;9.188;2022-10-17T09:58:23;8.37;;;5.70;;
75450;SDS011;64029;48.244;9.188;2022-10-17T10:01:14;9.13;;;6.23;;
75450;SDS011;64029;48.244;9.188;2022-10-17T10:03:46;6.53;;;5.30;;
75450;SDS011;64029;48.244;9.188;2022-10-17T10:06:14;10.43;;;5.57;;
75450;SDS011;64029;48.244;9.188;2022-10-17T10:08:48;6.67;;;4.57;;
75450;SDS011;64029;48.244;9.188;2022-10-17T10:11:17;5.77;;;4.80;;
75450;SDS011;64029;48.244;9.188;2022-10-17T10:13:47;6.90;;;3.93;;
75450;SDS011;64029;48.244;9.188;2022-10-17T10:16:30;4.77;;;3.90;;
75450;SDS011;64029;48.244;9.188;2022-10-17T10:18:59;4.83;;;3.80;;
75450;SDS011;64029;48.244;9.188;2022-10-17T10:21:26;3.73;;;3.20;;
75450;SDS011;64029;48.244;9.188;2022-10-17T10:24:03;5.53;;;3.80;;
75450;SDS011;64029;48.244;9.188;2022-10-17T10:26:37;4.07;;;3.37;;
75450;SDS011;64029;48.244;9.188;2022-10-17T10:29:06;3.67;;;3.27;;
75450;SDS011;64029;48.244;9.188;2022-10-17T10:31:47;6.03;;;4.50;;
75450;SDS011;64029;48.244;9.188;2022-10-17T10:34:17;9.23;;;4.10;;
75450;SDS011;64029;48.244;9.188;2022-10-17T10:36:51;3.90;;;3.33;;
75450;SDS011;64029;48.244;9.188;2022-10-17T10:39:41;5.40;;;3.73;;
75450;SDS011;64029;48.244;9.188;2022-10-17T10:42:22;3.23;;;2.93;;
75450;SDS011;64029;48.244;9.188;2022-10-17T10:44:52;3.60;;;3.13;;
75450;SDS011;64029;48.244;9.188;2022-10-17T10:47:21;4.00;;;3.23;;
75450;SDS011;64029;48.244;9.188;2022-10-17T10:49:52;4.50;;;2.90;;
75450;SDS011;64029;48.244;9.188;2022-10-17T10:52:37;7.43;;;2.80;;
75450;SDS011;64029;48.244;9.188;2022-10-17T10:55:15;3.70;;;2.73;;
75450;SDS011;64029;48.244;9.188;2022-10-17T10:57:48;4.47;;;2.57;;
75450;SDS011;64029;48.244;9.188;2022-10-17T11:00:18;4.07;;;3.00;;
75450;SDS011;64029;48.244;9.188;2022-10-17T11:02:52;3.70;;;3.20;;
75450;SDS011;64029;48.244;9.188;2022-10-17T11:05:29;3.50;;;2.90;;
75450;SDS011;64029;48.244;9.188;2022-10-17T11:08:06;2.87;;;2.67;;
75450;SDS011;64029;48.244;9.188;2022-10-17T11:10:41;4.33;;;3.00;;
75450;SDS011;64029;48.244;9.188;2022-10-17T11:13:23;4.00;;;2.70;;
75450;SDS011;64029;48.244;9.188;2022-10-17T11:15:54;3.80;;;2.70;;
75450;SDS011;64029;48.244;9.188;2022-10-17T11:18:25;6.83;;;2.90;;
75450;SDS011;64029;48.244;9.188;2022-10-17T11:21:02;2.90;;;2.63;;
75450;SDS011;64029;48.244;9.188;2022-10-17T11:23:36;4.23;;;2.83;;
75450;SDS011;64029;48.244;9.188;2022-10-17T11:26:10;4.87;;;2.87;;
75450;SDS011;64029;48.244;9.188;2022-10-17T11:28:49;3.20;;;2.20;;
75450;SDS011;64029;48.244;9.188;2022-10-17T11:31:17;2.50;;;2.30;;
75450;SDS011;64029;48.244;9.188;2022-10-17T11:33:48;5.30;;;2.87;;
75450;SDS011;64029;48.244;9.188;2022-10-17T11:36:20;3.17;;;2.40;;
75450;SDS011;64029;48.244;9.188;2022-10-17T11:38:52;4.50;;;2.20;;
75450;SDS011;64029;48.244;9.188;2022-10-17T11:41:22;3.97;;;2.60;;
75450;SDS011;64029;48.244;9.188;2022-10-17T11:43:55;2.80;;;2.43;;
75450;SDS011;64029;48.244;9.188;2022-10-17T11:46:25;4.20;;;2.20;;
75450;SDS011;64029;48.244;9.188;2022-10-17T11:48:58;2.77;;;2.57;;
75450;SDS011;64029;48.244;9.188;2022-10-17T11:51:35;2.87;;;2.67;;
75450;SDS011;64029;48.244;9.188;2022-10-17T11:54:07;2.30;;;2.10;;
75450;SDS011;64029;48.244;9.188;2022-10-17T11:56:40;2.90;;;2.23;;
75450;SDS011;64029;48.244;9.188;2022-10-17T11:59:26;3.00;;;2.10;;
75450;SDS011;64029;48.244;9.188;2022-10-17T12:02:11;4.10;;;2.17;;
75450;SDS011;64029;48.244;9.188;2022-10-17T12:04:45;2.70;;;2.50;;
75450;SDS011;64029;48.244;9.188;2022-10-17T12:07:21;3.40;;;2.27;;
75450;SDS011;64029;48.244;9.188;2022-10-17T12:09:56;5.27;;;2.80;;
75450;SDS011;64029;48.244;9.188;2022-10-17T12:12:29;6.77;;;2.23;;
75450;SDS011;64029;48.244;9.188;2022-10-17T12:17:55;3.30;;;2.50;;
75450;SDS011;64029;48.244;9.188;2022-10-17T12:20:27;2.40;;;2.20;;
75450;SDS011;64029;48.244;9.188;2022-10-17T12:22:58;6.20;;;2.40;;
75450;SDS011;64029;48.244;9.188;2022-10-17T12:25:31;4.57;;;2.33;;
75450;SDS011;64029;48.244;9.188;2022-10-17T12:28:13;5.53;;;2.37;;
75450;SDS011;64029;48.244;9.188;2022-10-17T12:30:49;5.33;;;2.87;;
75450;SDS011;64029;48.244;9.188;2022-10-17T12:33:18;2.80;;;2.40;;
75450;SDS011;64029;48.244;9.188;2022-10-17T12:35:47;6.10;;;2.50;;
75450;SDS011;64029;48.244;9.188;2022-10-17T12:38:21;4.37;;;1.90;;
75450;SDS011;64029;48.244;9.188;2022-10-17T12:40:53;3.53;;;2.27;;
75450;SDS011;64029;48.244;9.188;2022-10-17T12:43:35;3.23;;;2.03;;
75450;SDS011;64029;48.244;9.188;2022-10-17T12:49:39;2.50;;;1.60;;
75450;SDS011;64029;48.244;9.188;2022-10-17T12:55:15;2.63;;;2.20;;
75450;SDS011;64029;48.244;9.188;2022-10-17T12:57:47;3.13;;;1.90;;
75450;SDS011;64029;48.244;9.188;2022-10-17T13:00:20;6.47;;;2.30;;
75450;SDS011;64029;48.244;9.188;2022-10-17T13:02:52;4.53;;;2.23;;
75450;SDS011;64029;48.244;9.188;2022-10-17T13:05:29;4.80;;;2.10;;
75450;SDS011;64029;48.244;9.188;2022-10-17T13:07:59;4.33;;;2.20;;
75450;SDS011;64029;48.244;9.188;2022-10-17T13:10:31;4.30;;;1.93;;
75450;SDS011;64029;48.244;9.188;2022-10-17T13:13:03;6.20;;;2.17;;
75450;SDS011;64029;48.244;9.188;2022-10-17T13:15:46;8.67;;;2.13;;
75450;SDS011;64029;48.244;9.188;2022-10-17T13:18:17;3.20;;;1.83;;
75450;SDS011;64029;48.244;9.188;2022-10-17T13:20:53;3.93;;;1.60;;
75450;SDS011;64029;48.244;9.188;2022-10-17T13:23:21;6.00;;;2.20;;
75450;SDS011;64029;48.244;9.188;2022-10-17T13:26:02;2.70;;;2.00;;
75450;SDS011;64029;48.244;9.188;2022-10-17T13:28:36;5.53;;;1.83;;
75450;SDS011;64029;48.244;9.188;2022-10-17T13:31:03;4.33;;;2.50;;
75450;SDS011;64029;48.244;9.188;2022-10-17T13:33:32;4.00;;;2.10;;
75450;SDS011;64029;48.244;9.188;2022-10-17T13:36:05;9.77;;;2.53;;
75450;SDS011;64029;48.244;9.188;2022-10-17T13:38:33;6.33;;;2.07;;
75450;SDS011;64029;48.244;9.188;2022-10-17T13:41:02;4.43;;;2.43;;
75450;SDS011;64029;48.244;9.188;2022-10-17T13:43:35;4.80;;;2.60;;
75450;SDS011;64029;48.244;9.188;2022-10-17T13:46:03;8.73;;;2.27;;
75450;SDS011;64029;48.244;9.188;2022-10-17T13:48:31;4.03;;;2.50;;
75450;SDS011;64029;48.244;9.188;2022-10-17T13:51:02;5.20;;;3.40;;
75450;SDS011;64029;48.244;9.188;2022-10-17T13:53:31;10.47;;;4.10;;
75450;SDS011;64029;48.244;9.188;2022-10-17T13:56:00;5.37;;;3.20;;
75450;SDS011;64029;48.244;9.188;2022-10-17T13:58:39;3.20;;;2.10;;
75450;SDS011;64029;48.244;9.188;2022-10-17T14:01:08;4.50;;;2.30;;
75450;SDS011;64029;48.244;9.188;2022-10-17T14:03:36;9.40;;;2.50;;
75450;SDS011;64029;48.244;9.188;2022-10-17T14:06:05;6.77;;;2.70;;
75450;SDS011;64029;48.244;9.188;2022-10-17T14:08:38;2.13;;;1.77;;
75450;SDS011;64029;48.244;9.188;2022-10-17T14:11:13;4.17;;;1.60;;
75450;SDS011;64029;48.244;9.188;2022-10-17T14:13:48;7.53;;;2.70;;
75450;SDS011;64029;48.244;9.188;2022-10-17T14:16:16;8.53;;;3.10;;
75450;SDS011;64029;48.244;9.188;2022-10-17T14:18:45;3.83;;;1.90;;
75450;SDS011;64029;48.244;9.188;2022-10-17T14:21:18;3.57;;;1.77;;
75450;SDS011;64029;48.244;9.188;2022-10-17T14:23:49;3.03;;;1.50;;
75450;SDS011;64029;48.244;9.188;2022-10-17T14:26:44;8.03;;;1.50;;
75450;SDS011;64029;48.244;9.188;2022-10-17T14:29:19;2.23;;;1.80;;
75450;SDS011;64029;48.244;9.188;2022-10-17T14:31:48;8.80;;;1.90;;
75450;SDS011;64029;48.244;9.188;2022-10-17T14:34:19;4.70;;;1.40;;
75450;SDS011;64029;48.244;9.188;2022-10-17T14:36:50;4.83;;;1.47;;
75450;SDS011;64029;48.244;9.188;2022-10-17T14:39:18;4.20;;;1.33;;
75450;SDS011;64029;48.244;9.188;2022-10-17T14:41:48;3.70;;;1.40;;
75450;SDS011;64029;48.244;9.188;2022-10-17T14:44:21;4.33;;;1.27;;
75450;SDS011;64029;48.244;9.188;2022-10-17T14:46:52;2.20;;;1.30;;
75450;SDS011;64029;48.244;9.188;2022-10-17T14:49:25;1.77;;;1.27;;
75450;SDS011;64029;48.244;9.188;2022-10-17T14:54:58;3.10;;;1.60;;
75450;SDS011;64029;48.244;9.188;2022-10-17T14:57:27;4.37;;;1.50;;
75450;SDS011;64029;48.244;9.188;2022-10-17T15:00:08;5.63;;;1.47;;
75450;SDS011;64029;48.244;9.188;2022-10-17T15:02:39;8.33;;;1.97;;
75450;SDS011;64029;48.244;9.188;2022-10-17T15:05:06;1.47;;;1.30;;
75450;SDS011;64029;48.244;9.188;2022-10-17T15:07:33;3.47;;;1.20;;
75450;SDS011;64029;48.244;9.188;2022-10-17T15:10:00;4.83;;;1.73;;
75450;SDS011;64029;48.244;9.188;2022-10-17T15:12:27;1.93;;;1.30;;
75450;SDS011;64029;48.244;9.188;2022-10-17T15:14:55;1.60;;;1.20;;
75450;SDS011;64029;48.244;9.188;2022-10-17T15:17:23;4.93;;;1.80;;
75450;SDS011;64029;48.244;9.188;2022-10-17T15:19:52;3.53;;;1.63;;
75450;SDS011;64029;48.244;9.188;2022-10-17T15:22:19;3.27;;;1.37;;
75450;SDS011;64029;48.244;9.188;2022-10-17T15:24:46;6.33;;;1.70;;